Time;durP1;ratioP1;P1;durP2;ratioP2;P2;SDS_P1;SDS_P2;PMS_P1;PMS_P2;Temp;Humidity;BMP_temperature;BMP_pressure;BME280_temperature;BME280_humidity;BME280_pressure;Samples;Min_cycle;Max_cycle;Signal;HPM_P1;HPM_P2
2023/08/19 00:00:27;;;;;;;13.23;7.88;;;24.40;99.90;;;;;;5036059;28;20214;-77
2023/08/19 00:03:18;;;;;;;9.90;7.82;;;24.40;99.90;;;;;;5014090;28;20222;-77
2023/08/19 00:05:45;;;;;;;7.95;7.07;;;24.30;99.90;;;;;;5010898;28;20211;-79
2023/08/19 00:08:13;;;;;;;10.18;7.55;;;24.30;99.90;;;;;;5009138;28;20212;-79
2023/08/19 00:10:42;;;;;;;9.88;7.55;;;24.30;99.90;;;;;;5011159;28;20218;-79
2023/08/19 00:13:10;;;;;;;10.48;7.25;;;24.30;99.90;;;;;;5012024;28;20233;-79
2023/08/19 00:15:38;;;;;;;10.43;6.30;;;24.30;99.90;;;;;;5013917;28;20198;-79
2023/08/19 00:18:05;;;;;;;9.57;6.80;;;24.30;99.90;;;;;;5011125;28;20205;-79
2023/08/19 00:20:33;;;;;;;9.55;6.38;;;24.30;99.90;;;;;;5010710;28;20286;-79
2023/08/19 00:23:00;;;;;;;7.75;6.25;;;24.20;99.90;;;;;;5010168;28;20230;-79
2023/08/19 00:25:28;;;;;;;6.78;6.07;;;24.30;99.90;;;;;;5011841;28;20214;-77
2023/08/19 00:27:57;;;;;;;8.75;6.22;;;24.30;99.90;;;;;;5007850;28;20207;-77
2023/08/19 00:30:24;;;;;;;8.70;6.10;;;24.30;99.90;;;;;;5006431;28;21160;-76
2023/08/19 00:32:51;;;;;;;8.85;5.78;;;24.30;99.90;;;;;;5007859;28;20591;-77
2023/08/19 00:35:19;;;;;;;9.43;5.97;;;24.30;99.90;;;;;;5013440;28;20206;-77
2023/08/19 00:37:46;;;;;;;7.85;6.07;;;24.30;99.90;;;;;;5011599;28;20225;-77
2023/08/19 00:40:15;;;;;;;7.32;6.63;;;24.30;99.90;;;;;;5013305;28;20207;-77
2023/08/19 00:42:43;;;;;;;9.48;7.03;;;24.30;99.90;;;;;;5013728;28;20241;-77
2023/08/19 00:45:12;;;;;;;6.07;5.43;;;24.30;99.90;;;;;;5015858;28;20222;-77
2023/08/19 00:47:40;;;;;;;8.85;6.35;;;24.30;99.90;;;;;;5021947;28;20668;-77
2023/08/19 00:50:11;;;;;;;8.48;5.75;;;24.30;99.90;;;;;;5017764;28;20210;-77
2023/08/19 00:52:39;;;;;;;6.38;5.78;;;24.30;99.90;;;;;;5017446;28;20227;-77
2023/08/19 00:55:07;;;;;;;10.40;5.50;;;24.30;99.90;;;;;;5016430;28;20202;-76
2023/08/19 00:57:37;;;;;;;7.40;5.95;;;24.30;99.90;;;;;;5020906;28;20206;-77
2023/08/19 01:00:06;;;;;;;10.43;6.15;;;24.20;99.90;;;;;;5033587;28;20218;-77
2023/08/19 01:02:35;;;;;;;8.38;6.18;;;24.20;99.90;;;;;;5013715;28;20219;-77
2023/08/19 01:05:04;;;;;;;9.27;6.35;;;24.20;99.90;;;;;;5013187;28;20704;-76
2023/08/19 01:07:39;;;;;;;8.93;6.18;;;24.10;99.90;;;;;;5030872;28;20589;-77
2023/08/19 01:10:13;;;;;;;7.10;5.97;;;24.10;99.90;;;;;;5012784;28;20218;-77
2023/08/19 01:12:47;;;;;;;9.20;6.38;;;23.90;99.90;;;;;;5033795;28;20214;-77
2023/08/19 01:15:19;;;;;;;10.20;6.95;;;23.90;99.90;;;;;;5016860;28;20195;-77
2023/08/19 01:17:50;;;;;;;6.68;6.03;;;23.90;99.90;;;;;;5033124;28;20198;-77
2023/08/19 01:20:18;;;;;;;8.13;7.10;;;23.90;99.90;;;;;;5005048;28;20199;-77
2023/08/19 01:22:50;;;;;;;9.77;7.18;;;24.00;99.90;;;;;;5015167;28;20219;-77
2023/08/19 01:25:19;;;;;;;9.85;6.93;;;24.00;99.90;;;;;;5016630;28;20213;-77
2023/08/19 01:27:47;;;;;;;7.82;6.55;;;24.00;99.90;;;;;;5014879;28;20199;-77
2023/08/19 01:30:15;;;;;;;9.77;7.80;;;24.00;99.90;;;;;;5005694;28;20199;-77
2023/08/19 01:32:44;;;;;;;11.05;7.72;;;24.00;99.90;;;;;;5016193;28;20692;-77
2023/08/19 01:35:15;;;;;;;9.38;7.60;;;24.00;99.90;;;;;;5013589;28;20222;-77
2023/08/19 01:37:48;;;;;;;8.75;7.85;;;24.00;99.90;;;;;;5030784;28;20658;-77
2023/08/19 01:40:15;;;;;;;8.73;7.63;;;24.00;99.90;;;;;;5015671;28;20210;-77
2023/08/19 01:42:46;;;;;;;9.50;7.65;;;24.00;99.90;;;;;;5012341;28;20226;-77
2023/08/19 01:45:14;;;;;;;11.30;8.55;;;23.90;99.90;;;;;;5014075;28;20214;-77
2023/08/19 01:47:42;;;;;;;8.55;7.55;;;24.00;99.90;;;;;;5012232;28;20211;-77
2023/08/19 01:50:10;;;;;;;9.02;7.72;;;23.90;99.90;;;;;;5025680;28;20191;-77
2023/08/19 01:52:38;;;;;;;8.90;7.93;;;23.90;99.90;;;;;;5013179;28;20684;-77
2023/08/19 01:55:07;;;;;;;8.80;7.78;;;23.90;99.90;;;;;;5029394;28;20199;-77
2023/08/19 01:57:35;;;;;;;9.65;7.97;;;23.90;99.90;;;;;;5029022;28;20183;-77
2023/08/19 02:00:05;;;;;;;9.13;8.27;;;23.80;99.90;;;;;;5013331;28;20203;-77
2023/08/19 02:02:41;;;;;;;8.52;7.72;;;23.80;99.90;;;;;;5037363;28;20234;-77
2023/08/19 02:05:12;;;;;;;8.98;8.07;;;23.70;99.90;;;;;;5013706;28;20221;-77
2023/08/19 02:07:40;;;;;;;8.50;7.60;;;23.60;99.90;;;;;;5030480;28;20210;-77
2023/08/19 02:10:08;;;;;;;9.45;7.85;;;23.60;99.90;;;;;;5010679;28;20301;-77
2023/08/19 02:12:37;;;;;;;9.02;8.02;;;23.60;99.90;;;;;;5007742;28;20227;-77
2023/08/19 02:15:07;;;;;;;9.25;8.18;;;23.60;99.90;;;;;;5017304;28;20195;-77
2023/08/19 02:17:35;;;;;;;8.95;8.07;;;23.60;99.90;;;;;;5028663;28;20203;-77
2023/08/19 02:20:03;;;;;;;10.98;9.27;;;23.50;99.90;;;;;;5030819;28;20179;-77
2023/08/19 02:22:31;;;;;;;8.73;7.82;;;23.50;99.90;;;;;;5013261;28;20719;-77
2023/08/19 02:24:58;;;;;;;9.35;8.27;;;23.50;99.90;;;;;;5012671;28;20550;-77
2023/08/19 02:27:26;;;;;;;13.25;8.65;;;23.50;99.90;;;;;;5015484;28;20199;-77
2023/08/19 02:29:53;;;;;;;10.82;8.68;;;23.40;99.90;;;;;;5013390;28;20206;-77
2023/08/19 02:32:22;;;;;;;9.32;8.45;;;23.40;99.90;;;;;;5030415;28;20205;-77
2023/08/19 02:34:50;;;;;;;9.30;8.40;;;23.30;99.90;;;;;;5012939;28;20207;-77
2023/08/19 02:37:17;;;;;;;10.93;8.35;;;23.40;99.90;;;;;;5023748;28;20199;-77
2023/08/19 02:39:44;;;;;;;9.35;8.45;;;23.30;99.90;;;;;;5009249;28;20644;-77
2023/08/19 02:42:15;;;;;;;9.75;8.27;;;23.30;99.90;;;;;;5010654;28;20206;-77
2023/08/19 02:44:43;;;;;;;10.50;8.40;;;23.30;99.90;;;;;;5010430;28;20206;-76
2023/08/19 02:47:10;;;;;;;10.77;8.20;;;23.40;99.90;;;;;;5029060;28;20218;-77
2023/08/19 02:49:39;;;;;;;9.15;8.32;;;23.40;99.90;;;;;;5005811;28;20727;-77
2023/08/19 02:52:07;;;;;;;9.23;8.35;;;23.40;99.90;;;;;;5006595;28;20207;-77
2023/08/19 02:54:34;;;;;;;8.23;7.43;;;23.30;99.90;;;;;;5010821;28;20215;-77
2023/08/19 02:57:02;;;;;;;10.52;8.25;;;23.30;99.90;;;;;;5010788;28;20192;-77
2023/08/19 02:59:30;;;;;;;10.20;7.78;;;23.30;99.90;;;;;;5018135;28;20206;-77
2023/08/19 03:02:01;;;;;;;8.95;8.02;;;23.20;99.90;;;;;;5012598;28;20211;-77
2023/08/19 03:04:28;;;;;;;9.27;8.13;;;23.20;99.90;;;;;;5012513;28;20223;-77
2023/08/19 03:06:58;;;;;;;8.77;7.80;;;23.20;99.90;;;;;;5011428;28;20208;-77
2023/08/19 03:09:25;;;;;;;8.18;7.40;;;23.20;99.90;;;;;;5013088;28;20207;-77
2023/08/19 03:11:54;;;;;;;10.82;8.02;;;23.20;99.90;;;;;;5017378;28;20221;-77
2023/08/19 03:14:21;;;;;;;10.38;8.20;;;23.10;99.90;;;;;;5031201;28;20229;-77
2023/08/19 03:16:49;;;;;;;8.18;7.38;;;23.10;99.90;;;;;;5014702;28;20202;-76
2023/08/19 03:19:17;;;;;;;13.13;8.85;;;23.10;99.90;;;;;;5028090;28;20214;-77
2023/08/19 03:21:44;;;;;;;9.55;7.63;;;23.10;99.90;;;;;;5011304;28;20199;-77
2023/08/19 03:24:14;;;;;;;11.10;7.22;;;23.00;99.90;;;;;;5012680;28;20314;-77
2023/08/19 03:26:41;;;;;;;8.63;7.72;;;23.10;99.90;;;;;;5013624;28;20217;-77
2023/08/19 03:29:09;;;;;;;8.48;7.25;;;23.10;99.90;;;;;;5027707;28;20214;-77
2023/08/19 03:31:36;;;;;;;8.23;7.45;;;23.00;99.90;;;;;;5014718;28;20209;-77
2023/08/19 03:34:04;;;;;;;7.97;7.00;;;23.10;99.90;;;;;;5011905;28;20676;-77
2023/08/19 03:36:31;;;;;;;10.82;7.90;;;23.00;99.90;;;;;;5029535;28;20194;-77
2023/08/19 03:38:58;;;;;;;7.60;6.88;;;23.00;99.90;;;;;;5027342;28;20195;-77
2023/08/19 03:41:27;;;;;;;9.88;6.90;;;23.10;99.90;;;;;;5012069;28;20199;-77
2023/08/19 03:43:55;;;;;;;7.30;6.53;;;23.10;99.90;;;;;;5013848;28;20219;-77
2023/08/19 03:46:22;;;;;;;8.38;7.57;;;23.10;99.90;;;;;;5035632;28;20218;-77
2023/08/19 03:48:49;;;;;;;14.07;7.50;;;23.10;99.90;;;;;;5013043;28;20202;-77
2023/08/19 03:51:17;;;;;;;7.70;6.95;;;23.10;99.90;;;;;;5023612;28;20199;-77
2023/08/19 03:53:44;;;;;;;9.60;7.28;;;23.10;99.90;;;;;;5009498;28;20223;-77
2023/08/19 03:56:11;;;;;;;8.63;7.20;;;23.10;99.90;;;;;;5016960;28;20199;-77
2023/08/19 03:58:40;;;;;;;8.23;7.40;;;23.10;99.90;;;;;;5010386;28;20203;-77
2023/08/19 04:01:08;;;;;;;7.85;7.15;;;23.00;99.90;;;;;;5028107;28;20222;-77
2023/08/19 04:03:39;;;;;;;10.07;7.57;;;23.00;99.90;;;;;;5012585;28;20226;-77
2023/08/19 04:06:06;;;;;;;9.63;7.82;;;23.00;99.90;;;;;;5013797;28;20219;-77
2023/08/19 04:08:34;;;;;;;9.43;7.15;;;23.00;99.90;;;;;;5017061;28;20203;-77
2023/08/19 04:11:06;;;;;;;9.45;6.90;;;23.00;99.90;;;;;;5027042;28;20246;-77
2023/08/19 04:13:33;;;;;;;8.55;7.38;;;22.90;99.90;;;;;;5019479;28;20225;-77
2023/08/19 04:16:07;;;;;;;8.07;6.93;;;23.00;99.90;;;;;;5010899;28;20194;-77
2023/08/19 04:18:36;;;;;;;8.90;7.25;;;23.00;99.90;;;;;;5017284;28;20816;-77
2023/08/19 04:21:05;;;;;;;10.25;7.32;;;23.00;99.90;;;;;;5011695;28;20206;-77
2023/08/19 04:23:32;;;;;;;6.85;5.90;;;22.90;99.90;;;;;;5019392;28;20218;-77
2023/08/19 04:26:00;;;;;;;14.35;7.47;;;23.00;99.90;;;;;;5026459;28;20205;-77
2023/08/19 04:28:28;;;;;;;8.35;6.47;;;23.10;99.90;;;;;;5018293;28;20202;-77
2023/08/19 04:31:03;;;;;;;7.55;6.95;;;23.10;99.90;;;;;;5016324;28;20191;-77
2023/08/19 04:33:34;;;;;;;8.82;7.93;;;23.20;99.90;;;;;;5017848;28;20219;-77
2023/08/19 04:36:02;;;;;;;8.68;6.70;;;23.10;99.90;;;;;;5015408;28;20206;-77
2023/08/19 04:38:30;;;;;;;7.65;6.85;;;23.10;99.90;;;;;;5026819;28;20211;-77
2023/08/19 04:41:00;;;;;;;10.73;7.10;;;23.00;99.90;;;;;;5018963;28;20199;-77
2023/08/19 04:43:33;;;;;;;6.57;5.00;;;23.00;99.90;;;;;;5014969;28;20218;-77
2023/08/19 04:46:01;;;;;;;7.65;6.85;;;23.10;99.90;;;;;;5017371;28;20198;-77
2023/08/19 04:48:28;;;;;;;8.23;6.65;;;23.20;99.90;;;;;;5027237;28;20190;-77
2023/08/19 04:50:57;;;;;;;8.75;6.63;;;23.20;99.90;;;;;;5014828;28;20202;-77
2023/08/19 04:53:25;;;;;;;7.25;6.38;;;23.10;99.90;;;;;;5023983;28;20218;-77
2023/08/19 04:55:59;;;;;;;7.13;6.28;;;23.20;99.90;;;;;;5019771;28;20649;-77
2023/08/19 04:58:26;;;;;;;7.15;6.38;;;23.20;99.90;;;;;;5013609;28;20195;-77
2023/08/19 05:01:08;;;;;;;7.55;6.75;;;23.30;99.90;;;;;;5020737;28;20203;-77
2023/08/19 05:03:37;;;;;;;9.23;6.95;;;23.30;99.90;;;;;;5017901;28;20229;-77
2023/08/19 05:06:06;;;;;;;6.88;6.22;;;23.40;99.90;;;;;;5016260;28;20676;-77
2023/08/19 05:08:38;;;;;;;9.52;7.60;;;23.40;99.90;;;;;;5015816;28;20202;-77
2023/08/19 05:11:07;;;;;;;8.23;7.45;;;23.40;99.90;;;;;;5017334;28;20218;-77
2023/08/19 05:13:34;;;;;;;10.40;7.68;;;23.30;99.90;;;;;;5026064;28;20222;-77
2023/08/19 05:16:02;;;;;;;8.20;7.50;;;23.30;99.90;;;;;;5017022;28;20569;-77
2023/08/19 05:18:29;;;;;;;7.95;7.15;;;23.30;99.90;;;;;;5016367;28;20191;-77
2023/08/19 05:20:57;;;;;;;10.15;7.15;;;23.40;99.90;;;;;;5029491;28;20625;-78
2023/08/19 05:23:29;;;;;;;8.70;7.03;;;23.40;99.90;;;;;;5016633;28;20215;-78
2023/08/19 05:25:56;;;;;;;10.20;7.30;;;23.30;99.90;;;;;;5017396;28;20195;-78
2023/08/19 05:28:27;;;;;;;8.18;7.35;;;23.30;99.90;;;;;;5035395;28;20219;-78
2023/08/19 05:30:54;;;;;;;8.95;6.65;;;23.40;99.90;;;;;;5016080;28;20195;-78
2023/08/19 05:33:44;;;;;;;10.18;6.75;;;23.40;99.90;;;;;;5012966;28;20223;-77
2023/08/19 05:36:11;;;;;;;8.80;6.43;;;23.50;99.90;;;;;;5024455;28;20203;-77
2023/08/19 05:38:52;;;;;;;7.10;6.30;;;23.50;99.90;;;;;;5013327;28;20210;-77
2023/08/19 05:41:21;;;;;;;9.32;6.90;;;23.50;99.90;;;;;;5022249;28;22139;-77
2023/08/19 05:43:58;;;;;;;8.15;6.35;;;23.50;99.90;;;;;;5009938;28;20222;-78
2023/08/19 05:46:29;;;;;;;6.75;6.05;;;23.60;99.90;;;;;;5022913;28;20203;-77
2023/08/19 05:48:57;;;;;;;7.07;5.57;;;23.70;99.90;;;;;;5008269;28;20202;-78
2023/08/19 05:51:24;;;;;;;7.20;5.68;;;23.70;99.90;;;;;;5024922;28;20550;-77
2023/08/19 05:53:59;;;;;;;6.97;6.25;;;23.70;99.90;;;;;;5023050;28;20688;-78
2023/08/19 05:56:39;;;;;;;5.68;4.47;;;23.70;99.90;;;;;;5034099;28;20546;-77
2023/08/19 05:59:06;;;;;;;6.10;4.10;;;23.80;99.90;;;;;;5030374;28;20207;-77
2023/08/19 06:01:33;;;;;;;6.32;4.00;;;23.90;99.90;;;;;;5028515;28;20208;-76
2023/08/19 06:04:01;;;;;;;5.65;3.50;;;24.00;99.90;;;;;;5025891;28;20740;-76
2023/08/19 06:06:34;;;;;;;6.47;3.58;;;24.20;99.90;;;;;;5031032;28;20206;-77
2023/08/19 06:09:06;;;;;;;5.53;3.42;;;24.30;99.90;;;;;;5010658;28;20571;-77
2023/08/19 06:11:34;;;;;;;4.60;3.40;;;24.30;99.90;;;;;;5011923;28;20206;-77
2023/08/19 06:14:01;;;;;;;4.40;3.42;;;24.40;99.90;;;;;;5014456;28;20689;-76
2023/08/19 06:16:28;;;;;;;5.45;3.30;;;24.50;1.00;;;;;;5013213;28;20207;-76
2023/08/19 06:18:56;;;;;;;5.35;3.42;;;24.40;99.90;;;;;;5019981;28;20203;-77
2023/08/19 06:21:27;;;;;;;5.57;3.38;;;24.50;28.20;;;;;;5014787;28;20186;-77
2023/08/19 06:24:14;;;;;;;4.22;3.45;;;24.60;1.00;;;;;;5026746;28;20219;-77
2023/08/19 06:26:41;;;;;;;5.00;3.10;;;24.60;1.00;;;;;;5006959;28;20206;-77
2023/08/19 06:29:09;;;;;;;6.22;3.38;;;24.70;1.00;;;;;;5026622;28;20219;-77
2023/08/19 06:31:37;;;;;;;3.78;2.92;;;24.70;1.00;;;;;;5011132;28;20210;-77
2023/08/19 06:34:05;;;;;;;5.85;3.40;;;24.70;1.00;;;;;;5000409;28;20223;-77
2023/08/19 06:36:38;;;;;;;5.32;3.13;;;24.70;1.00;;;;;;5010607;28;20680;-77
2023/08/19 06:39:27;;;;;;;5.68;3.53;;;24.70;30.50;;;;;;5026794;28;20577;-77
2023/08/19 06:42:01;;;;;;;3.72;3.35;;;24.70;50.00;;;;;;5012210;28;20198;-79
2023/08/19 06:44:30;;;;;;;3.47;3.17;;;24.70;70.00;;;;;;5027757;28;20211;-79
2023/08/19 06:47:00;;;;;;;4.15;3.75;;;24.80;99.90;;;;;;5009020;28;20214;-79
2023/08/19 06:49:28;;;;;;;7.50;3.53;;;24.80;99.90;;;;;;5009291;28;20199;-77
2023/08/19 06:52:08;;;;;;;3.75;3.13;;;24.80;99.90;;;;;;5015173;28;20207;-78
2023/08/19 06:54:37;;;;;;;5.00;2.92;;;24.90;99.90;;;;;;5016253;28;20218;-76
2023/08/19 06:57:08;;;;;;;9.25;4.63;;;24.90;99.90;;;;;;5014806;28;20195;-76
2023/08/19 06:59:38;;;;;;;8.95;4.85;;;24.90;99.90;;;;;;5032393;28;20214;-80
2023/08/19 07:02:06;;;;;;;3.58;3.28;;;24.90;99.90;;;;;;5015901;28;20215;-80
2023/08/19 07:04:35;;;;;;;9.43;5.10;;;25.00;99.90;;;;;;5031784;28;20238;-82
2023/08/19 07:07:05;;;;;;;6.90;4.28;;;25.00;99.90;;;;;;5035609;28;20222;-83
2023/08/19 07:09:34;;;;;;;5.97;3.63;;;25.00;99.90;;;;;;5014448;28;20206;-83
2023/08/19 07:12:04;;;;;;;6.68;3.45;;;25.00;99.90;;;;;;5014796;28;20203;-82
2023/08/19 07:14:32;;;;;;;4.93;3.38;;;25.00;99.90;;;;;;5029651;28;20680;-82
2023/08/19 07:17:03;;;;;;;4.60;3.40;;;25.00;99.90;;;;;;5009170;28;20200;-82
2023/08/19 07:19:38;;;;;;;8.02;4.00;;;25.00;99.90;;;;;;5009336;28;20198;-83
2023/08/19 07:22:06;;;;;;;3.85;3.00;;;25.10;99.90;;;;;;5026383;28;20194;-82
2023/08/19 07:24:34;;;;;;;4.72;3.38;;;25.20;99.90;;;;;;5008533;28;20226;-82
2023/08/19 07:27:05;;;;;;;6.55;3.92;;;25.20;99.90;;;;;;5009769;28;20207;-82
2023/08/19 07:29:34;;;;;;;5.78;3.35;;;25.20;99.90;;;;;;5027203;28;20230;-80
2023/08/19 07:32:03;;;;;;;7.35;4.03;;;25.20;99.90;;;;;;5008733;28;20226;-80
2023/08/19 07:34:31;;;;;;;4.85;3.22;;;25.30;99.90;;;;;;5012395;28;20219;-80
2023/08/19 07:36:58;;;;;;;7.03;3.63;;;25.30;99.90;;;;;;5010632;28;20214;-80
2023/08/19 07:39:26;;;;;;;5.15;3.72;;;25.30;99.90;;;;;;5024818;28;20222;-80
2023/08/19 07:41:54;;;;;;;5.60;3.30;;;25.20;99.90;;;;;;5029057;28;20195;-80
2023/08/19 07:44:23;;;;;;;4.50;3.30;;;25.20;99.90;;;;;;5012448;28;20692;-80
2023/08/19 07:46:50;;;;;;;3.75;3.00;;;25.30;99.90;;;;;;5010616;28;20218;-80
2023/08/19 07:49:18;;;;;;;6.38;2.90;;;25.30;99.90;;;;;;5005938;28;20574;-77
2023/08/19 07:51:47;;;;;;;5.63;3.22;;;25.30;99.90;;;;;;5003175;28;20209;-77
2023/08/19 07:54:15;;;;;;;3.97;3.10;;;25.40;99.90;;;;;;5007370;28;20218;-78
2023/08/19 07:56:42;;;;;;;3.85;3.00;;;25.40;99.90;;;;;;5010047;28;20535;-77
2023/08/19 07:59:10;;;;;;;3.65;2.92;;;25.50;99.90;;;;;;5004947;28;20194;-78
2023/08/19 08:01:39;;;;;;;4.00;3.50;;;25.40;99.90;;;;;;5008232;28;20198;-78
2023/08/19 08:04:06;;;;;;;4.22;3.38;;;25.40;99.90;;;;;;5026835;28;20218;-78
2023/08/19 08:06:34;;;;;;;3.60;3.15;;;25.50;99.90;;;;;;5005297;28;20203;-79
2023/08/19 08:09:02;;;;;;;3.50;3.20;;;25.60;99.90;;;;;;5013720;28;20210;-78
2023/08/19 08:11:29;;;;;;;4.00;3.60;;;25.50;99.90;;;;;;5013927;28;20207;-78
2023/08/19 08:13:57;;;;;;;5.40;3.20;;;25.60;99.90;;;;;;5014309;28;20224;-78
2023/08/19 08:16:24;;;;;;;5.18;3.60;;;25.50;99.90;;;;;;5014165;28;20210;-78
2023/08/19 08:18:53;;;;;;;4.38;3.90;;;25.60;99.90;;;;;;5013802;28;20206;-78
2023/08/19 08:21:20;;;;;;;5.72;3.63;;;25.60;99.90;;;;;;4994893;28;20195;-78
2023/08/19 08:23:49;;;;;;;4.55;3.50;;;25.60;99.90;;;;;;5014253;28;20233;-78
2023/08/19 08:26:16;;;;;;;4.25;3.53;;;25.60;99.90;;;;;;5031938;28;20207;-78
2023/08/19 08:28:44;;;;;;;7.43;4.05;;;25.60;99.90;;;;;;5014070;28;20218;-77
2023/08/19 08:31:11;;;;;;;4.60;3.97;;;25.70;99.90;;;;;;5014183;28;20199;-78
2023/08/19 08:33:39;;;;;;;5.72;3.55;;;25.70;99.90;;;;;;5013874;28;20226;-78
2023/08/19 08:36:08;;;;;;;5.30;3.80;;;25.80;99.90;;;;;;5031505;28;20325;-78
2023/08/19 08:38:35;;;;;;;4.40;3.70;;;25.80;99.90;;;;;;5001297;28;20202;-78
2023/08/19 08:41:04;;;;;;;4.72;4.32;;;25.90;99.90;;;;;;5010378;28;20208;-78
2023/08/19 08:43:35;;;;;;;5.10;3.92;;;25.90;99.90;;;;;;4996010;28;20222;-78
2023/08/19 08:46:03;;;;;;;5.22;3.80;;;25.90;99.90;;;;;;5027685;28;20214;-78
2023/08/19 08:48:33;;;;;;;5.47;3.60;;;26.00;99.90;;;;;;5029456;28;20222;-78
2023/08/19 08:51:01;;;;;;;3.83;3.50;;;26.10;99.90;;;;;;5012908;28;20192;-78
2023/08/19 08:53:30;;;;;;;4.13;3.80;;;26.20;99.90;;;;;;5013825;28;20223;-78
2023/08/19 08:55:59;;;;;;;3.80;3.47;;;26.40;99.90;;;;;;5031231;28;20199;-78
2023/08/19 08:58:26;;;;;;;3.70;3.40;;;26.50;99.90;;;;;;5012960;28;20187;-78
2023/08/19 09:00:55;;;;;;;5.85;3.67;;;26.70;99.90;;;;;;5013508;28;20225;-78
2023/08/19 09:03:26;;;;;;;5.70;3.33;;;26.80;99.90;;;;;;5012017;28;20223;-77
2023/08/19 09:05:56;;;;;;;3.92;3.53;;;26.90;99.90;;;;;;5017474;28;20207;-78
2023/08/19 09:08:31;;;;;;;3.75;3.30;;;27.00;99.90;;;;;;5010310;28;20219;-78
2023/08/19 09:11:01;;;;;;;6.72;4.03;;;27.00;99.90;;;;;;5025885;28;20203;-78
2023/08/19 09:13:30;;;;;;;5.75;3.80;;;27.00;99.90;;;;;;5010240;28;20226;-79
2023/08/19 09:16:22;;;;;;;4.50;3.70;;;27.20;99.90;;;;;;5013451;28;20215;-78
2023/08/19 09:18:51;;;;;;;5.75;3.80;;;27.20;99.90;;;;;;5009296;28;20211;-78
2023/08/19 09:21:18;;;;;;;5.53;4.03;;;27.20;99.90;;;;;;5007737;28;20200;-79
2023/08/19 09:23:46;;;;;;;3.97;3.53;;;27.20;99.90;;;;;;5015594;28;20238;-79
2023/08/19 09:26:18;;;;;;;3.67;3.38;;;27.30;99.90;;;;;;5015149;28;20211;-78
2023/08/19 09:29:23;;;;;;;4.70;4.00;;;27.30;99.90;;;;;;5026428;28;20219;-79
2023/08/19 09:31:53;;;;;;;5.78;4.25;;;27.30;99.90;;;;;;5030377;28;20195;-79
2023/08/19 09:34:20;;;;;;;4.28;3.88;;;27.30;99.90;;;;;;5016841;28;20227;-79
2023/08/19 09:36:48;;;;;;;4.90;4.43;;;27.40;99.90;;;;;;5033378;28;20215;-79
2023/08/19 09:39:21;;;;;;;4.47;4.07;;;27.40;99.90;;;;;;5017060;28;20198;-78
2023/08/19 09:41:49;;;;;;;4.35;3.92;;;27.60;99.90;;;;;;5014109;28;20565;-79
2023/08/19 09:44:17;;;;;;;4.95;4.03;;;27.90;99.90;;;;;;5006227;28;20227;-78
2023/08/19 09:46:45;;;;;;;5.18;4.07;;;27.90;99.90;;;;;;5013204;28;20226;-79
2023/08/19 09:49:21;;;;;;;6.85;4.22;;;27.90;99.90;;;;;;5009331;28;20226;-78
2023/08/19 09:51:54;;;;;;;4.93;4.43;;;28.00;99.90;;;;;;5012289;28;20214;-79
2023/08/19 09:54:24;;;;;;;5.32;4.25;;;28.00;99.90;;;;;;5007540;28;20226;-78
2023/08/19 09:56:56;;;;;;;4.88;3.80;;;28.00;99.90;;;;;;5014851;28;20211;-78
2023/08/19 09:59:25;;;;;;;5.95;4.78;;;27.90;99.90;;;;;;5007685;28;20195;-79
2023/08/19 10:01:52;;;;;;;8.25;4.85;;;28.00;99.90;;;;;;5024701;28;20222;-78
2023/08/19 10:04:20;;;;;;;11.00;5.13;;;28.10;99.90;;;;;;5024497;28;20230;-78
2023/08/19 10:06:50;;;;;;;6.47;4.72;;;28.30;99.90;;;;;;5026040;28;20207;-79
2023/08/19 10:09:21;;;;;;;4.90;4.43;;;28.30;99.90;;;;;;5022652;28;20226;-79
2023/08/19 10:11:51;;;;;;;5.72;4.70;;;28.40;99.90;;;;;;5007547;28;20206;-78
2023/08/19 10:14:24;;;;;;;7.07;4.90;;;28.50;99.90;;;;;;5011359;28;20595;-79
2023/08/19 10:16:54;;;;;;;6.10;5.03;;;28.50;99.90;;;;;;5027532;28;20658;-78
2023/08/19 10:19:23;;;;;;;5.93;5.10;;;28.60;99.90;;;;;;5006901;28;20675;-78
2023/08/19 10:21:53;;;;;;;6.80;5.03;;;28.60;99.90;;;;;;5027415;28;20198;-79
2023/08/19 10:24:22;;;;;;;8.60;4.38;;;28.70;99.90;;;;;;5009254;28;20219;-78
2023/08/19 10:27:20;;;;;;;5.35;4.85;;;28.80;99.90;;;;;;5012533;28;20222;-78
2023/08/19 10:29:56;;;;;;;5.50;5.00;;;28.70;99.90;;;;;;5009595;28;20227;-79
2023/08/19 10:32:33;;;;;;;6.82;5.28;;;28.70;99.90;;;;;;5010205;28;20209;-79
2023/08/19 10:35:08;;;;;;;7.15;5.05;;;28.70;99.90;;;;;;5025942;28;20222;-78
2023/08/19 10:37:40;;;;;;;7.97;5.13;;;28.70;99.90;;;;;;5012740;28;20302;-78
2023/08/19 10:40:11;;;;;;;8.60;5.72;;;28.80;99.90;;;;;;5020821;28;20207;-78
2023/08/19 10:42:55;;;;;;;5.88;4.93;;;29.00;99.90;;;;;;5013743;28;20237;-79
2023/08/19 10:49:12;;;;;;;8.57;5.95;;;29.00;99.90;;;;;;4902853;29;20219;-79
2023/08/19 10:51:54;;;;;;;7.85;4.90;;;28.90;99.90;;;;;;4928155;28;20211;-79
2023/08/19 10:54:38;;;;;;;7.68;5.13;;;28.90;99.90;;;;;;5011913;28;20222;-79
2023/08/19 10:57:11;;;;;;;6.20;5.20;;;28.90;99.90;;;;;;5022034;28;20202;-79
2023/08/19 10:59:40;;;;;;;5.95;5.38;;;29.00;99.90;;;;;;5026311;28;20199;-79
2023/08/19 11:02:09;;;;;;;6.15;4.82;;;29.00;99.90;;;;;;5012695;28;20203;-80
2023/08/19 11:04:43;;;;;;;6.18;5.07;;;29.00;99.90;;;;;;5008875;28;20226;-79
2023/08/19 11:07:11;;;;;;;5.97;5.38;;;29.10;99.90;;;;;;5020608;28;20591;-79
2023/08/19 11:09:41;;;;;;;6.57;5.25;;;29.10;99.90;;;;;;5028923;28;20231;-79
2023/08/19 11:12:09;;;;;;;6.53;5.70;;;29.10;99.90;;;;;;5023175;28;20203;-79
2023/08/19 11:14:37;;;;;;;7.55;5.88;;;29.10;99.90;;;;;;5011180;28;20230;-78
2023/08/19 11:17:04;;;;;;;8.18;5.80;;;29.00;99.90;;;;;;5022736;28;20200;-79
2023/08/19 11:19:32;;;;;;;8.40;5.25;;;29.00;99.90;;;;;;5010402;28;20202;-79
2023/08/19 11:22:01;;;;;;;8.15;5.90;;;29.00;99.90;;;;;;5025707;28;20222;-79
2023/08/19 11:24:32;;;;;;;6.85;5.72;;;29.00;99.90;;;;;;5014317;28;20226;-79
2023/08/19 11:27:00;;;;;;;7.80;5.40;;;29.00;99.90;;;;;;5006835;28;20234;-79
2023/08/19 11:29:28;;;;;;;8.40;6.18;;;29.00;99.90;;;;;;5011877;28;20211;-79
2023/08/19 11:31:55;;;;;;;7.68;6.10;;;28.90;99.90;;;;;;5012077;28;20214;-80
2023/08/19 11:34:28;;;;;;;7.18;6.45;;;28.80;99.90;;;;;;5007106;28;20580;-79
2023/08/19 11:36:56;;;;;;;8.68;7.43;;;28.60;99.90;;;;;;5011420;28;20203;-79
2023/08/19 11:39:31;;;;;;;9.00;7.00;;;28.50;99.90;;;;;;5023739;28;20198;-78
2023/08/19 11:41:59;;;;;;;9.05;6.75;;;28.40;99.90;;;;;;5007646;28;20191;-79
2023/08/19 11:44:26;;;;;;;7.32;6.35;;;28.40;99.90;;;;;;5012321;28;20222;-79
2023/08/19 11:46:55;;;;;;;7.65;6.50;;;28.20;99.90;;;;;;5011681;28;20214;-79
2023/08/19 11:49:24;;;;;;;7.53;6.80;;;28.20;99.90;;;;;;5024782;28;20203;-79
2023/08/19 11:51:52;;;;;;;10.50;7.60;;;28.10;99.90;;;;;;5026941;28;20206;-79
2023/08/19 11:54:20;;;;;;;8.48;7.18;;;28.00;99.90;;;;;;5023254;28;20219;-79
2023/08/19 11:56:50;;;;;;;8.52;6.93;;;27.90;99.90;;;;;;5021925;28;20200;-79
2023/08/19 11:59:18;;;;;;;8.63;7.30;;;27.80;99.90;;;;;;5013460;28;20211;-79
2023/08/19 12:01:47;;;;;;;9.40;8.10;;;27.70;99.90;;;;;;5007985;28;20203;-79
2023/08/19 12:04:16;;;;;;;8.98;7.47;;;27.60;99.90;;;;;;5005034;28;20231;-79
2023/08/19 12:06:44;;;;;;;9.77;8.23;;;27.60;99.90;;;;;;5022611;28;20211;-79
2023/08/19 12:09:12;;;;;;;8.63;7.68;;;27.50;99.90;;;;;;5025166;28;20190;-79
2023/08/19 12:11:40;;;;;;;9.30;7.70;;;27.40;99.90;;;;;;5028231;28;20214;-79
2023/08/19 12:14:08;;;;;;;9.57;8.63;;;27.20;99.90;;;;;;5008587;28;20221;-79
2023/08/19 12:16:36;;;;;;;9.80;8.80;;;27.10;99.90;;;;;;5009682;28;20203;-79
2023/08/19 12:19:15;;;;;;;10.13;8.95;;;27.00;99.90;;;;;;5023342;28;20226;-78
2023/08/19 12:21:43;;;;;;;11.52;9.05;;;27.00;99.90;;;;;;5009524;28;20213;-78
2023/08/19 12:24:10;;;;;;;10.00;9.05;;;27.00;99.90;;;;;;5009557;28;20229;-78
2023/08/19 12:26:38;;;;;;;9.38;8.38;;;27.20;99.90;;;;;;5009832;28;20209;-79
2023/08/19 12:29:10;;;;;;;10.00;9.00;;;27.30;99.90;;;;;;5004688;28;20211;-78
2023/08/19 12:31:37;;;;;;;9.75;8.85;;;27.40;99.90;;;;;;5011082;28;20218;-79
2023/08/19 12:34:05;;;;;;;11.30;8.85;;;27.60;99.90;;;;;;5009034;28;20226;-78
2023/08/19 12:36:32;;;;;;;9.90;8.50;;;27.60;99.90;;;;;;5008358;28;20219;-79
2023/08/19 12:38:59;;;;;;;10.68;9.65;;;27.50;99.90;;;;;;5027698;28;20210;-79
2023/08/19 12:41:27;;;;;;;12.82;9.82;;;27.60;99.90;;;;;;5015843;28;20206;-78
2023/08/19 12:43:54;;;;;;;11.20;9.23;;;27.70;99.90;;;;;;5012582;28;20230;-78
2023/08/19 12:46:23;;;;;;;10.18;8.85;;;27.70;99.90;;;;;;5015311;28;20214;-78
2023/08/19 12:48:51;;;;;;;10.32;9.27;;;27.70;99.90;;;;;;5009185;28;20207;-78
2023/08/19 12:51:19;;;;;;;12.85;10.13;;;27.80;99.90;;;;;;5029671;28;20218;-78
2023/08/19 12:53:46;;;;;;;14.98;10.05;;;27.80;99.90;;;;;;5026555;28;20693;-78
2023/08/19 12:56:14;;;;;;;11.32;10.30;;;28.00;99.90;;;;;;5015558;28;20214;-78
2023/08/19 12:59:15;;;;;;;10.60;9.52;;;28.00;99.90;;;;;;5014565;28;20580;-78
2023/08/19 13:02:01;;;;;;;12.13;10.77;;;27.80;99.90;;;;;;5011385;28;20207;-78